sensor_id;sensor_type;location;lat;lon;timestamp;P1;durP1;ratioP1;P2;durP2;ratioP2
39410;SDS011;26579;43.238;23.124;2024-02-21T00:01:24;13.80;;;8.43;;
39410;SDS011;26579;43.238;23.124;2024-02-21T00:03:50;14.15;;;7.93;;
39410;SDS011;26579;43.238;23.124;2024-02-21T00:06:15;13.40;;;8.48;;
39410;SDS011;26579;43.238;23.124;2024-02-21T00:08:41;13.20;;;6.88;;
39410;SDS011;26579;43.238;23.124;2024-02-21T00:11:06;11.55;;;7.57;;
39410;SDS011;26579;43.238;23.124;2024-02-21T00:13:32;12.00;;;6.68;;
39410;SDS011;26579;43.238;23.124;2024-02-21T00:15:59;11.57;;;7.85;;
39410;SDS011;26579;43.238;23.124;2024-02-21T00:18:26;13.15;;;7.82;;
39410;SDS011;26579;43.238;23.124;2024-02-21T00:20:51;14.45;;;7.97;;
39410;SDS011;26579;43.238;23.124;2024-02-21T00:23:17;13.73;;;7.93;;
39410;SDS011;26579;43.238;23.124;2024-02-21T00:25:43;13.65;;;7.80;;
39410;SDS011;26579;43.238;23.124;2024-02-21T00:28:08;14.18;;;7.97;;
39410;SDS011;26579;43.238;23.124;2024-02-21T00:30:34;16.63;;;9.05;;
39410;SDS011;26579;43.238;23.124;2024-02-21T00:33:00;12.80;;;8.02;;
39410;SDS011;26579;43.238;23.124;2024-02-21T00:35:25;13.38;;;7.65;;
39410;SDS011;26579;43.238;23.124;2024-02-21T00:37:51;16.85;;;9.10;;
39410;SDS011;26579;43.238;23.124;2024-02-21T00:40:17;23.92;;;11.48;;
39410;SDS011;26579;43.238;23.124;2024-02-21T00:42:43;25.08;;;13.02;;
39410;SDS011;26579;43.238;23.124;2024-02-21T00:45:08;41.63;;;19.25;;
39410;SDS011;26579;43.238;23.124;2024-02-21T00:47:34;34.28;;;17.00;;
39410;SDS011;26579;43.238;23.124;2024-02-21T00:50:00;38.30;;;19.58;;
39410;SDS011;26579;43.238;23.124;2024-02-21T00:52:25;20.90;;;11.10;;
39410;SDS011;26579;43.238;23.124;2024-02-21T00:54:51;24.30;;;11.75;;
39410;SDS011;26579;43.238;23.124;2024-02-21T00:57:17;16.38;;;8.10;;
39410;SDS011;26579;43.238;23.124;2024-02-21T00:59:42;20.52;;;11.02;;
39410;SDS011;26579;43.238;23.124;2024-02-21T01:02:08;18.83;;;9.73;;
39410;SDS011;26579;43.238;23.124;2024-02-21T01:04:34;22.98;;;13.10;;
39410;SDS011;26579;43.238;23.124;2024-02-21T01:07:00;19.05;;;11.35;;
39410;SDS011;26579;43.238;23.124;2024-02-21T01:09:25;18.92;;;10.30;;
39410;SDS011;26579;43.238;23.124;2024-02-21T01:11:51;13.02;;;7.20;;
39410;SDS011;26579;43.238;23.124;2024-02-21T01:14:16;10.68;;;6.80;;
39410;SDS011;26579;43.238;23.124;2024-02-21T01:16:42;11.00;;;7.00;;
39410;SDS011;26579;43.238;23.124;2024-02-21T01:19:08;13.38;;;6.78;;
39410;SDS011;26579;43.238;23.124;2024-02-21T01:21:33;11.32;;;6.85;;
39410;SDS011;26579;43.238;23.124;2024-02-21T01:23:59;14.38;;;7.32;;
39410;SDS011;26579;43.238;23.124;2024-02-21T01:26:25;12.45;;;7.10;;
39410;SDS011;26579;43.238;23.124;2024-02-21T01:28:50;11.68;;;7.20;;
39410;SDS011;26579;43.238;23.124;2024-02-21T01:31:16;11.18;;;6.15;;
39410;SDS011;26579;43.238;23.124;2024-02-21T01:33:41;11.75;;;6.63;;
39410;SDS011;26579;43.238;23.124;2024-02-21T01:36:07;13.05;;;6.90;;
39410;SDS011;26579;43.238;23.124;2024-02-21T01:38:33;10.93;;;6.47;;
39410;SDS011;26579;43.238;23.124;2024-02-21T01:40:58;10.10;;;6.10;;
39410;SDS011;26579;43.238;23.124;2024-02-21T01:43:24;10.32;;;5.55;;
39410;SDS011;26579;43.238;23.124;2024-02-21T01:45:51;11.75;;;5.85;;
39410;SDS011;26579;43.238;23.124;2024-02-21T01:48:18;10.68;;;6.13;;
39410;SDS011;26579;43.238;23.124;2024-02-21T01:50:45;11.13;;;5.70;;
39410;SDS011;26579;43.238;23.124;2024-02-21T01:53:14;9.02;;;5.55;;
39410;SDS011;26579;43.238;23.124;2024-02-21T01:55:47;10.65;;;6.22;;
39410;SDS011;26579;43.238;23.124;2024-02-21T01:58:16;6.97;;;4.30;;
39410;SDS011;26579;43.238;23.124;2024-02-21T02:00:43;7.85;;;4.35;;
39410;SDS011;26579;43.238;23.124;2024-02-21T02:03:13;8.32;;;4.97;;
39410;SDS011;26579;43.238;23.124;2024-02-21T02:05:39;9.32;;;5.43;;
39410;SDS011;26579;43.238;23.124;2024-02-21T02:08:05;8.48;;;4.85;;
39410;SDS011;26579;43.238;23.124;2024-02-21T02:10:31;6.43;;;3.95;;
39410;SDS011;26579;43.238;23.124;2024-02-21T02:12:57;8.13;;;4.60;;
39410;SDS011;26579;43.238;23.124;2024-02-21T02:15:23;7.78;;;5.00;;
39410;SDS011;26579;43.238;23.124;2024-02-21T02:17:48;9.70;;;4.45;;
39410;SDS011;26579;43.238;23.124;2024-02-21T02:20:14;10.68;;;5.45;;
39410;SDS011;26579;43.238;23.124;2024-02-21T02:22:40;9.65;;;5.07;;
39410;SDS011;26579;43.238;23.124;2024-02-21T02:25:08;9.43;;;5.28;;
39410;SDS011;26579;43.238;23.124;2024-02-21T02:27:41;9.68;;;5.10;;
39410;SDS011;26579;43.238;23.124;2024-02-21T02:30:07;12.82;;;6.28;;
39410;SDS011;26579;43.238;23.124;2024-02-21T02:32:33;13.80;;;7.18;;
39410;SDS011;26579;43.238;23.124;2024-02-21T02:34:59;10.93;;;6.18;;
39410;SDS011;26579;43.238;23.124;2024-02-21T02:37:25;10.48;;;5.70;;
39410;SDS011;26579;43.238;23.124;2024-02-21T02:39:50;11.00;;;5.25;;
39410;SDS011;26579;43.238;23.124;2024-02-21T02:42:16;11.15;;;5.50;;
39410;SDS011;26579;43.238;23.124;2024-02-21T02:44:41;13.00;;;6.20;;
39410;SDS011;26579;43.238;23.124;2024-02-21T02:47:08;11.13;;;5.63;;
39410;SDS011;26579;43.238;23.124;2024-02-21T02:49:34;12.00;;;6.45;;
39410;SDS011;26579;43.238;23.124;2024-02-21T02:51:59;10.45;;;5.50;;
39410;SDS011;26579;43.238;23.124;2024-02-21T02:54:28;9.82;;;5.50;;
39410;SDS011;26579;43.238;23.124;2024-02-21T02:56:54;10.02;;;5.30;;
39410;SDS011;26579;43.238;23.124;2024-02-21T02:59:19;6.68;;;4.03;;
39410;SDS011;26579;43.238;23.124;2024-02-21T03:01:45;7.75;;;3.95;;
39410;SDS011;26579;43.238;23.124;2024-02-21T03:04:11;6.90;;;4.50;;
39410;SDS011;26579;43.238;23.124;2024-02-21T03:06:37;7.20;;;4.28;;
39410;SDS011;26579;43.238;23.124;2024-02-21T03:09:03;6.72;;;3.92;;
39410;SDS011;26579;43.238;23.124;2024-02-21T03:11:28;7.82;;;4.03;;
39410;SDS011;26579;43.238;23.124;2024-02-21T03:13:55;7.63;;;4.18;;
39410;SDS011;26579;43.238;23.124;2024-02-21T03:16:21;7.30;;;4.25;;
39410;SDS011;26579;43.238;23.124;2024-02-21T03:18:47;8.30;;;3.90;;
39410;SDS011;26579;43.238;23.124;2024-02-21T03:21:13;10.63;;;4.90;;
39410;SDS011;26579;43.238;23.124;2024-02-21T03:23:38;8.65;;;4.38;;
39410;SDS011;26579;43.238;23.124;2024-02-21T03:26:04;10.82;;;6.43;;
39410;SDS011;26579;43.238;23.124;2024-02-21T03:28:29;8.13;;;4.47;;
39410;SDS011;26579;43.238;23.124;2024-02-21T03:30:55;14.05;;;8.18;;
39410;SDS011;26579;43.238;23.124;2024-02-21T03:33:21;11.45;;;6.20;;
39410;SDS011;26579;43.238;23.124;2024-02-21T03:35:46;8.40;;;4.85;;
39410;SDS011;26579;43.238;23.124;2024-02-21T03:38:12;11.43;;;5.00;;
39410;SDS011;26579;43.238;23.124;2024-02-21T03:40:37;9.73;;;5.97;;
39410;SDS011;26579;43.238;23.124;2024-02-21T03:43:03;8.10;;;4.70;;
39410;SDS011;26579;43.238;23.124;2024-02-21T03:45:29;7.95;;;5.47;;
39410;SDS011;26579;43.238;23.124;2024-02-21T03:47:54;7.75;;;5.03;;
39410;SDS011;26579;43.238;23.124;2024-02-21T03:50:20;9.65;;;5.70;;
39410;SDS011;26579;43.238;23.124;2024-02-21T03:52:45;11.23;;;6.47;;
39410;SDS011;26579;43.238;23.124;2024-02-21T03:55:11;9.80;;;4.70;;
39410;SDS011;26579;43.238;23.124;2024-02-21T03:57:37;9.68;;;5.43;;
39410;SDS011;26579;43.238;23.124;2024-02-21T04:00:02;14.40;;;7.68;;
39410;SDS011;26579;43.238;23.124;2024-02-21T04:02:32;15.93;;;8.80;;
39410;SDS011;26579;43.238;23.124;2024-02-21T04:04:58;12.93;;;7.80;;
39410;SDS011;26579;43.238;23.124;2024-02-21T04:07:24;10.35;;;6.82;;
39410;SDS011;26579;43.238;23.124;2024-02-21T04:09:49;8.52;;;5.28;;
39410;SDS011;26579;43.238;23.124;2024-02-21T04:12:15;8.80;;;6.10;;
39410;SDS011;26579;43.238;23.124;2024-02-21T04:14:40;11.13;;;6.68;;
39410;SDS011;26579;43.238;23.124;2024-02-21T04:17:06;9.82;;;5.90;;
39410;SDS011;26579;43.238;23.124;2024-02-21T04:19:32;10.98;;;5.30;;
39410;SDS011;26579;43.238;23.124;2024-02-21T04:21:57;7.53;;;4.80;;
39410;SDS011;26579;43.238;23.124;2024-02-21T04:24:23;6.22;;;3.58;;
39410;SDS011;26579;43.238;23.124;2024-02-21T04:26:48;8.07;;;4.28;;
39410;SDS011;26579;43.238;23.124;2024-02-21T04:29:14;8.13;;;4.45;;
39410;SDS011;26579;43.238;23.124;2024-02-21T04:31:40;9.70;;;5.85;;
39410;SDS011;26579;43.238;23.124;2024-02-21T04:34:06;12.02;;;6.97;;
39410;SDS011;26579;43.238;23.124;2024-02-21T04:36:31;9.68;;;5.07;;
39410;SDS011;26579;43.238;23.124;2024-02-21T04:38:57;8.38;;;4.65;;
39410;SDS011;26579;43.238;23.124;2024-02-21T04:41:23;7.38;;;4.60;;
39410;SDS011;26579;43.238;23.124;2024-02-21T04:43:48;7.28;;;4.30;;
39410;SDS011;26579;43.238;23.124;2024-02-21T04:46:14;7.78;;;4.68;;
39410;SDS011;26579;43.238;23.124;2024-02-21T04:48:40;7.50;;;4.30;;
39410;SDS011;26579;43.238;23.124;2024-02-21T04:51:06;9.13;;;4.60;;
39410;SDS011;26579;43.238;23.124;2024-02-21T04:53:31;9.52;;;4.80;;
39410;SDS011;26579;43.238;23.124;2024-02-21T04:55:57;9.55;;;4.63;;
39410;SDS011;26579;43.238;23.124;2024-02-21T04:58:22;8.27;;;4.45;;
39410;SDS011;26579;43.238;23.124;2024-02-21T05:00:48;12.23;;;7.60;;
39410;SDS011;26579;43.238;23.124;2024-02-21T05:03:14;12.35;;;6.40;;
39410;SDS011;26579;43.238;23.124;2024-02-21T05:05:39;15.93;;;9.55;;
39410;SDS011;26579;43.238;23.124;2024-02-21T05:08:05;20.45;;;10.15;;
39410;SDS011;26579;43.238;23.124;2024-02-21T05:10:31;21.58;;;11.68;;
39410;SDS011;26579;43.238;23.124;2024-02-21T05:12:57;21.83;;;11.65;;
39410;SDS011;26579;43.238;23.124;2024-02-21T05:15:23;19.38;;;11.02;;
39410;SDS011;26579;43.238;23.124;2024-02-21T05:17:48;24.83;;;13.65;;
39410;SDS011;26579;43.238;23.124;2024-02-21T05:20:14;28.10;;;13.68;;
39410;SDS011;26579;43.238;23.124;2024-02-21T05:22:39;31.88;;;15.18;;
39410;SDS011;26579;43.238;23.124;2024-02-21T05:25:05;33.22;;;16.65;;
39410;SDS011;26579;43.238;23.124;2024-02-21T05:27:31;49.72;;;19.17;;
39410;SDS011;26579;43.238;23.124;2024-02-21T05:29:57;37.10;;;14.93;;
39410;SDS011;26579;43.238;23.124;2024-02-21T05:32:23;56.38;;;19.70;;
39410;SDS011;26579;43.238;23.124;2024-02-21T05:34:48;33.75;;;14.95;;
39410;SDS011;26579;43.238;23.124;2024-02-21T05:37:14;32.05;;;15.57;;
39410;SDS011;26579;43.238;23.124;2024-02-21T05:39:40;32.13;;;15.52;;
39410;SDS011;26579;43.238;23.124;2024-02-21T05:42:05;39.83;;;18.17;;
39410;SDS011;26579;43.238;23.124;2024-02-21T05:44:31;45.47;;;20.60;;
39410;SDS011;26579;43.238;23.124;2024-02-21T05:46:57;44.63;;;20.70;;
39410;SDS011;26579;43.238;23.124;2024-02-21T05:49:22;45.65;;;18.92;;
39410;SDS011;26579;43.238;23.124;2024-02-21T05:51:48;46.53;;;19.23;;
39410;SDS011;26579;43.238;23.124;2024-02-21T05:54:14;41.55;;;18.58;;
39410;SDS011;26579;43.238;23.124;2024-02-21T05:56:43;36.28;;;17.42;;
39410;SDS011;26579;43.238;23.124;2024-02-21T05:59:09;35.85;;;18.05;;
39410;SDS011;26579;43.238;23.124;2024-02-21T06:01:35;39.55;;;22.70;;
39410;SDS011;26579;43.238;23.124;2024-02-21T06:04:00;42.35;;;21.77;;
39410;SDS011;26579;43.238;23.124;2024-02-21T06:06:26;39.53;;;19.30;;
39410;SDS011;26579;43.238;23.124;2024-02-21T06:08:52;36.17;;;18.80;;
39410;SDS011;26579;43.238;23.124;2024-02-21T06:11:17;44.85;;;26.52;;
39410;SDS011;26579;43.238;23.124;2024-02-21T06:13:43;36.47;;;21.60;;
39410;SDS011;26579;43.238;23.124;2024-02-21T06:16:08;25.83;;;15.95;;
39410;SDS011;26579;43.238;23.124;2024-02-21T06:18:35;24.55;;;13.45;;
39410;SDS011;26579;43.238;23.124;2024-02-21T06:21:01;29.25;;;14.38;;
39410;SDS011;26579;43.238;23.124;2024-02-21T06:23:27;22.80;;;13.00;;
39410;SDS011;26579;43.238;23.124;2024-02-21T06:25:53;16.80;;;9.45;;
39410;SDS011;26579;43.238;23.124;2024-02-21T06:28:18;18.65;;;11.82;;
39410;SDS011;26579;43.238;23.124;2024-02-21T06:30:44;21.67;;;13.02;;
39410;SDS011;26579;43.238;23.124;2024-02-21T06:33:09;24.52;;;13.98;;
39410;SDS011;26579;43.238;23.124;2024-02-21T06:35:35;22.58;;;13.73;;
39410;SDS011;26579;43.238;23.124;2024-02-21T06:38:01;18.73;;;11.00;;
39410;SDS011;26579;43.238;23.124;2024-02-21T06:40:26;22.13;;;13.55;;
39410;SDS011;26579;43.238;23.124;2024-02-21T06:42:52;27.25;;;14.32;;
39410;SDS011;26579;43.238;23.124;2024-02-21T06:45:17;17.17;;;11.00;;
39410;SDS011;26579;43.238;23.124;2024-02-21T06:47:43;19.95;;;11.65;;
39410;SDS011;26579;43.238;23.124;2024-02-21T06:50:09;18.17;;;12.68;;
39410;SDS011;26579;43.238;23.124;2024-02-21T06:52:35;19.27;;;12.45;;
39410;SDS011;26579;43.238;23.124;2024-02-21T06:55:01;18.13;;;12.85;;
39410;SDS011;26579;43.238;23.124;2024-02-21T06:57:30;35.15;;;26.23;;
39410;SDS011;26579;43.238;23.124;2024-02-21T06:59:56;37.55;;;30.15;;
39410;SDS011;26579;43.238;23.124;2024-02-21T07:02:22;31.80;;;25.13;;
39410;SDS011;26579;43.238;23.124;2024-02-21T07:04:47;24.90;;;18.60;;
39410;SDS011;26579;43.238;23.124;2024-02-21T07:07:13;31.42;;;22.85;;
39410;SDS011;26579;43.238;23.124;2024-02-21T07:09:39;34.97;;;24.40;;
39410;SDS011;26579;43.238;23.124;2024-02-21T07:12:04;20.80;;;15.02;;
39410;SDS011;26579;43.238;23.124;2024-02-21T07:14:33;27.42;;;16.95;;
39410;SDS011;26579;43.238;23.124;2024-02-21T07:16:59;19.05;;;13.73;;
39410;SDS011;26579;43.238;23.124;2024-02-21T07:19:24;33.38;;;18.58;;
39410;SDS011;26579;43.238;23.124;2024-02-21T07:21:50;20.30;;;16.45;;
39410;SDS011;26579;43.238;23.124;2024-02-21T07:24:16;19.67;;;13.93;;
39410;SDS011;26579;43.238;23.124;2024-02-21T07:26:42;16.48;;;14.27;;
39410;SDS011;26579;43.238;23.124;2024-02-21T07:29:08;27.50;;;18.52;;
39410;SDS011;26579;43.238;23.124;2024-02-21T07:31:43;16.52;;;12.02;;
39410;SDS011;26579;43.238;23.124;2024-02-21T07:34:09;21.88;;;16.00;;
39410;SDS011;26579;43.238;23.124;2024-02-21T07:36:35;25.65;;;17.17;;
39410;SDS011;26579;43.238;23.124;2024-02-21T07:39:01;20.15;;;15.00;;
39410;SDS011;26579;43.238;23.124;2024-02-21T07:41:26;26.83;;;15.77;;
39410;SDS011;26579;43.238;23.124;2024-02-21T07:43:52;13.40;;;9.18;;
39410;SDS011;26579;43.238;23.124;2024-02-21T07:46:18;19.80;;;13.88;;
39410;SDS011;26579;43.238;23.124;2024-02-21T07:48:47;11.15;;;8.30;;
39410;SDS011;26579;43.238;23.124;2024-02-21T07:51:13;15.90;;;9.55;;
39410;SDS011;26579;43.238;23.124;2024-02-21T07:53:42;75.13;;;51.10;;
39410;SDS011;26579;43.238;23.124;2024-02-21T07:56:07;18.77;;;12.65;;
39410;SDS011;26579;43.238;23.124;2024-02-21T07:58:33;10.45;;;6.93;;
39410;SDS011;26579;43.238;23.124;2024-02-21T08:00:58;17.70;;;12.90;;
39410;SDS011;26579;43.238;23.124;2024-02-21T08:03:24;11.98;;;7.95;;
39410;SDS011;26579;43.238;23.124;2024-02-21T08:05:50;11.32;;;8.30;;
39410;SDS011;26579;43.238;23.124;2024-02-21T08:08:15;21.20;;;15.10;;
39410;SDS011;26579;43.238;23.124;2024-02-21T08:10:41;11.20;;;8.00;;
39410;SDS011;26579;43.238;23.124;2024-02-21T08:13:07;12.10;;;9.23;;
39410;SDS011;26579;43.238;23.124;2024-02-21T08:15:32;8.32;;;6.05;;
39410;SDS011;26579;43.238;23.124;2024-02-21T08:17:58;8.63;;;6.53;;
39410;SDS011;26579;43.238;23.124;2024-02-21T08:20:24;6.82;;;5.20;;
39410;SDS011;26579;43.238;23.124;2024-02-21T08:22:49;6.78;;;4.65;;
39410;SDS011;26579;43.238;23.124;2024-02-21T08:25:15;8.63;;;6.25;;
39410;SDS011;26579;43.238;23.124;2024-02-21T08:27:41;11.57;;;6.00;;
39410;SDS011;26579;43.238;23.124;2024-02-21T08:30:06;9.90;;;7.05;;
39410;SDS011;26579;43.238;23.124;2024-02-21T08:32:32;12.77;;;6.88;;
39410;SDS011;26579;43.238;23.124;2024-02-21T08:34:58;6.82;;;5.22;;
39410;SDS011;26579;43.238;23.124;2024-02-21T08:37:24;7.15;;;5.93;;
39410;SDS011;26579;43.238;23.124;2024-02-21T08:39:49;6.75;;;5.15;;
39410;SDS011;26579;43.238;23.124;2024-02-21T08:42:15;7.45;;;4.80;;
39410;SDS011;26579;43.238;23.124;2024-02-21T08:44:41;9.27;;;5.32;;
39410;SDS011;26579;43.238;23.124;2024-02-21T08:47:06;8.18;;;5.22;;
39410;SDS011;26579;43.238;23.124;2024-02-21T08:49:32;8.95;;;5.88;;
39410;SDS011;26579;43.238;23.124;2024-02-21T08:51:58;6.30;;;4.70;;
39410;SDS011;26579;43.238;23.124;2024-02-21T08:54:23;7.05;;;4.60;;
39410;SDS011;26579;43.238;23.124;2024-02-21T08:56:49;6.85;;;4.60;;
39410;SDS011;26579;43.238;23.124;2024-02-21T08:59:15;5.65;;;3.65;;
39410;SDS011;26579;43.238;23.124;2024-02-21T09:01:41;6.25;;;4.20;;
39410;SDS011;26579;43.238;23.124;2024-02-21T09:04:07;9.63;;;5.05;;
39410;SDS011;26579;43.238;23.124;2024-02-21T09:06:33;11.93;;;7.13;;
39410;SDS011;26579;43.238;23.124;2024-02-21T09:08:58;4.53;;;2.85;;
39410;SDS011;26579;43.238;23.124;2024-02-21T09:11:24;5.40;;;3.40;;
39410;SDS011;26579;43.238;23.124;2024-02-21T09:13:49;5.35;;;3.28;;
39410;SDS011;26579;43.238;23.124;2024-02-21T09:16:15;5.30;;;3.28;;
39410;SDS011;26579;43.238;23.124;2024-02-21T09:18:41;6.22;;;4.07;;
39410;SDS011;26579;43.238;23.124;2024-02-21T09:21:06;6.85;;;4.28;;
39410;SDS011;26579;43.238;23.124;2024-02-21T09:23:32;4.93;;;3.17;;
39410;SDS011;26579;43.238;23.124;2024-02-21T09:25:57;4.50;;;2.63;;
39410;SDS011;26579;43.238;23.124;2024-02-21T09:28:23;7.30;;;2.65;;
39410;SDS011;26579;43.238;23.124;2024-02-21T09:30:49;3.58;;;2.30;;
39410;SDS011;26579;43.238;23.124;2024-02-21T09:33:14;12.68;;;8.20;;
39410;SDS011;26579;43.238;23.124;2024-02-21T09:35:40;9.90;;;6.10;;
39410;SDS011;26579;43.238;23.124;2024-02-21T09:38:06;9.65;;;5.35;;
39410;SDS011;26579;43.238;23.124;2024-02-21T09:40:31;9.80;;;6.68;;
39410;SDS011;26579;43.238;23.124;2024-02-21T09:43:06;8.32;;;5.55;;
39410;SDS011;26579;43.238;23.124;2024-02-21T09:45:32;5.13;;;3.33;;
39410;SDS011;26579;43.238;23.124;2024-02-21T09:53:00;4.32;;;2.42;;
39410;SDS011;26579;43.238;23.124;2024-02-21T09:55:26;4.30;;;2.55;;
39410;SDS011;26579;43.238;23.124;2024-02-21T09:57:55;7.18;;;3.95;;
39410;SDS011;26579;43.238;23.124;2024-02-21T10:00:44;7.00;;;3.35;;
39410;SDS011;26579;43.238;23.124;2024-02-21T10:03:09;6.45;;;3.25;;
39410;SDS011;26579;43.238;23.124;2024-02-21T10:05:35;6.47;;;4.20;;
39410;SDS011;26579;43.238;23.124;2024-02-21T10:08:02;13.85;;;5.95;;
39410;SDS011;26579;43.238;23.124;2024-02-21T10:10:28;6.32;;;2.40;;
39410;SDS011;26579;43.238;23.124;2024-02-21T10:12:54;12.75;;;11.40;;
39410;SDS011;26579;43.238;23.124;2024-02-21T10:15:22;4.25;;;2.47;;
39410;SDS011;26579;43.238;23.124;2024-02-21T10:17:50;4.88;;;2.88;;
39410;SDS011;26579;43.238;23.124;2024-02-21T10:20:29;6.85;;;3.88;;
39410;SDS011;26579;43.238;23.124;2024-02-21T10:23:01;5.27;;;2.87;;
39410;SDS011;26579;43.238;23.124;2024-02-21T10:25:28;5.68;;;3.28;;
39410;SDS011;26579;43.238;23.124;2024-02-21T10:27:54;8.27;;;4.38;;
39410;SDS011;26579;43.238;23.124;2024-02-21T10:30:19;8.23;;;5.60;;
39410;SDS011;26579;43.238;23.124;2024-02-21T10:32:52;6.55;;;3.47;;
39410;SDS011;26579;43.238;23.124;2024-02-21T10:35:28;4.90;;;2.75;;
39410;SDS011;26579;43.238;23.124;2024-02-21T10:37:57;4.32;;;2.72;;
39410;SDS011;26579;43.238;23.124;2024-02-21T10:40:25;4.63;;;2.63;;
39410;SDS011;26579;43.238;23.124;2024-02-21T10:43:00;5.30;;;2.90;;
39410;SDS011;26579;43.238;23.124;2024-02-21T10:45:30;7.03;;;4.25;;
39410;SDS011;26579;43.238;23.124;2024-02-21T10:48:08;9.13;;;4.63;;
39410;SDS011;26579;43.238;23.124;2024-02-21T10:56:40;15.98;;;7.85;;
39410;SDS011;26579;43.238;23.124;2024-02-21T10:59:07;10.60;;;6.75;;
39410;SDS011;26579;43.238;23.124;2024-02-21T11:01:33;5.88;;;3.20;;
39410;SDS011;26579;43.238;23.124;2024-02-21T11:04:03;5.53;;;3.03;;
39410;SDS011;26579;43.238;23.124;2024-02-21T11:06:31;9.20;;;5.03;;
39410;SDS011;26579;43.238;23.124;2024-02-21T11:09:01;7.90;;;4.28;;
39410;SDS011;26579;43.238;23.124;2024-02-21T11:11:27;7.80;;;4.00;;
39410;SDS011;26579;43.238;23.124;2024-02-21T11:14:03;7.90;;;4.10;;
39410;SDS011;26579;43.238;23.124;2024-02-21T11:16:34;5.93;;;3.17;;
39410;SDS011;26579;43.238;23.124;2024-02-21T11:21:46;7.68;;;4.43;;
39410;SDS011;26579;43.238;23.124;2024-02-21T11:24:11;6.72;;;4.00;;
39410;SDS011;26579;43.238;23.124;2024-02-21T11:26:37;8.85;;;6.00;;
39410;SDS011;26579;43.238;23.124;2024-02-21T11:29:03;6.45;;;3.58;;
39410;SDS011;26579;43.238;23.124;2024-02-21T11:31:44;9.65;;;6.28;;
39410;SDS011;26579;43.238;23.124;2024-02-21T11:34:10;6.93;;;4.25;;
39410;SDS011;26579;43.238;23.124;2024-02-21T11:36:49;5.78;;;3.67;;
39410;SDS011;26579;43.238;23.124;2024-02-21T11:39:25;6.53;;;4.35;;
39410;SDS011;26579;43.238;23.124;2024-02-21T11:42:01;6.70;;;4.10;;
39410;SDS011;26579;43.238;23.124;2024-02-21T11:44:30;5.85;;;4.18;;
39410;SDS011;26579;43.238;23.124;2024-02-21T11:46:57;8.30;;;4.72;;
39410;SDS011;26579;43.238;23.124;2024-02-21T11:49:30;6.22;;;3.65;;
39410;SDS011;26579;43.238;23.124;2024-02-21T11:52:02;9.20;;;5.90;;
39410;SDS011;26579;43.238;23.124;2024-02-21T11:54:28;9.15;;;6.72;;
39410;SDS011;26579;43.238;23.124;2024-02-21T11:56:53;10.95;;;6.38;;
39410;SDS011;26579;43.238;23.124;2024-02-21T11:59:19;8.98;;;5.78;;
39410;SDS011;26579;43.238;23.124;2024-02-21T12:01:48;6.38;;;4.10;;
39410;SDS011;26579;43.238;23.124;2024-02-21T12:04:15;8.63;;;5.45;;
39410;SDS011;26579;43.238;23.124;2024-02-21T12:06:41;10.40;;;6.70;;
39410;SDS011;26579;43.238;23.124;2024-02-21T12:09:07;7.35;;;3.90;;
39410;SDS011;26579;43.238;23.124;2024-02-21T12:11:33;6.68;;;3.80;;
39410;SDS011;26579;43.238;23.124;2024-02-21T12:14:02;7.65;;;4.28;;
39410;SDS011;26579;43.238;23.124;2024-02-21T12:16:29;6.40;;;3.50;;
39410;SDS011;26579;43.238;23.124;2024-02-21T12:18:56;9.82;;;6.32;;
39410;SDS011;26579;43.238;23.124;2024-02-21T12:21:25;10.43;;;6.65;;
39410;SDS011;26579;43.238;23.124;2024-02-21T12:23:58;12.75;;;7.70;;
39410;SDS011;26579;43.238;23.124;2024-02-21T12:26:24;10.25;;;6.95;;
39410;SDS011;26579;43.238;23.124;2024-02-21T12:28:53;9.95;;;6.50;;
39410;SDS011;26579;43.238;23.124;2024-02-21T12:31:19;9.55;;;6.32;;
39410;SDS011;26579;43.238;23.124;2024-02-21T12:33:46;18.80;;;12.05;;
39410;SDS011;26579;43.238;23.124;2024-02-21T12:36:14;13.02;;;8.98;;
39410;SDS011;26579;43.238;23.124;2024-02-21T12:38:40;10.82;;;7.60;;
39410;SDS011;26579;43.238;23.124;2024-02-21T12:41:06;13.55;;;8.82;;
39410;SDS011;26579;43.238;23.124;2024-02-21T12:43:31;17.52;;;10.95;;
39410;SDS011;26579;43.238;23.124;2024-02-21T12:45:57;19.10;;;11.45;;
39410;SDS011;26579;43.238;23.124;2024-02-21T12:48:22;13.50;;;7.68;;
39410;SDS011;26579;43.238;23.124;2024-02-21T12:50:54;11.15;;;6.97;;
39410;SDS011;26579;43.238;23.124;2024-02-21T12:55:48;15.00;;;10.02;;
39410;SDS011;26579;43.238;23.124;2024-02-21T12:58:14;12.65;;;8.15;;
39410;SDS011;26579;43.238;23.124;2024-02-21T13:00:40;11.50;;;6.65;;
39410;SDS011;26579;43.238;23.124;2024-02-21T13:03:06;16.17;;;9.02;;
39410;SDS011;26579;43.238;23.124;2024-02-21T13:05:32;15.45;;;8.05;;
39410;SDS011;26579;43.238;23.124;2024-02-21T13:07:58;18.35;;;10.20;;
39410;SDS011;26579;43.238;23.124;2024-02-21T13:10:24;17.52;;;10.23;;
39410;SDS011;26579;43.238;23.124;2024-02-21T13:12:50;19.70;;;11.82;;
39410;SDS011;26579;43.238;23.124;2024-02-21T13:15:16;14.20;;;9.15;;
39410;SDS011;26579;43.238;23.124;2024-02-21T13:17:41;14.80;;;9.60;;
39410;SDS011;26579;43.238;23.124;2024-02-21T13:20:07;11.52;;;8.55;;
39410;SDS011;26579;43.238;23.124;2024-02-21T13:22:34;15.23;;;8.88;;
39410;SDS011;26579;43.238;23.124;2024-02-21T13:25:00;17.55;;;11.50;;
39410;SDS011;26579;43.238;23.124;2024-02-21T13:27:26;18.63;;;11.98;;
39410;SDS011;26579;43.238;23.124;2024-02-21T13:29:52;17.05;;;11.98;;
39410;SDS011;26579;43.238;23.124;2024-02-21T13:32:17;15.93;;;10.15;;
39410;SDS011;26579;43.238;23.124;2024-02-21T13:34:43;17.23;;;10.65;;
39410;SDS011;26579;43.238;23.124;2024-02-21T13:37:08;15.07;;;10.07;;
39410;SDS011;26579;43.238;23.124;2024-02-21T13:39:34;20.90;;;14.82;;
39410;SDS011;26579;43.238;23.124;2024-02-21T13:42:00;22.60;;;15.40;;
39410;SDS011;26579;43.238;23.124;2024-02-21T13:44:25;25.05;;;15.65;;
39410;SDS011;26579;43.238;23.124;2024-02-21T13:46:53;26.05;;;17.65;;
39410;SDS011;26579;43.238;23.124;2024-02-21T13:49:19;22.70;;;16.05;;
39410;SDS011;26579;43.238;23.124;2024-02-21T13:51:45;19.02;;;13.13;;
39410;SDS011;26579;43.238;23.124;2024-02-21T13:54:10;22.98;;;16.83;;
39410;SDS011;26579;43.238;23.124;2024-02-21T13:56:36;27.15;;;19.00;;
39410;SDS011;26579;43.238;23.124;2024-02-21T13:59:02;17.38;;;12.55;;
39410;SDS011;26579;43.238;23.124;2024-02-21T14:01:28;17.52;;;11.63;;
39410;SDS011;26579;43.238;23.124;2024-02-21T14:03:54;22.33;;;14.80;;
39410;SDS011;26579;43.238;23.124;2024-02-21T14:06:19;15.38;;;10.18;;
39410;SDS011;26579;43.238;23.124;2024-02-21T14:08:45;15.68;;;10.70;;
39410;SDS011;26579;43.238;23.124;2024-02-21T14:11:11;16.15;;;11.35;;
39410;SDS011;26579;43.238;23.124;2024-02-21T14:13:36;20.67;;;14.07;;
39410;SDS011;26579;43.238;23.124;2024-02-21T14:16:02;22.40;;;13.70;;
39410;SDS011;26579;43.238;23.124;2024-02-21T14:18:28;25.77;;;15.55;;
39410;SDS011;26579;43.238;23.124;2024-02-21T14:20:54;26.50;;;14.40;;
39410;SDS011;26579;43.238;23.124;2024-02-21T14:23:20;22.73;;;14.07;;
39410;SDS011;26579;43.238;23.124;2024-02-21T14:25:45;15.02;;;8.85;;
39410;SDS011;26579;43.238;23.124;2024-02-21T14:28:11;15.45;;;10.13;;
39410;SDS011;26579;43.238;23.124;2024-02-21T14:30:36;15.77;;;9.90;;
39410;SDS011;26579;43.238;23.124;2024-02-21T14:33:02;17.45;;;11.48;;
39410;SDS011;26579;43.238;23.124;2024-02-21T14:35:28;14.35;;;9.45;;